Time,TemperatureF,DewpointF,PressureIn,WindDirection,WindDirectionDegrees,WindSpeedMPH,WindSpeedGustMPH,Humidity,HourlyPrecipIn,Conditions,Clouds,dailyrainin,SoftwareType,DateUTC
2013-11-06 00:03:00,30.6,23.6,30.36,NE,45,0.0,-999.0,75,-99.99,,,0.00,Acu-Link.com,2013-11-06 05:03:00,
2013-11-06 00:18:00,30.7,23.7,30.36,NE,45,0.0,-999.0,75,-99.99,,,0.00,Acu-Link.com,2013-11-06 05:18:00,
2013-11-06 00:33:00,30.9,23.9,30.35,NE,45,0.0,-999.0,75,-99.99,,,0.00,Acu-Link.com,2013-11-06 05:33:00,
2013-11-06 00:48:00,31.3,24.3,30.35,NW,315,0.0,-999.0,75,-99.99,,,0.00,Acu-Link.com,2013-11-06 05:48:00,
2013-11-06 01:04:00,31.8,24.2,30.35,NW,315,0.0,-999.0,73,-99.99,,,0.00,Acu-Link.com,2013-11-06 06:04:00,
2013-11-06 01:19:00,31.8,24.2,30.35,NE,45,0.0,-999.0,73,-99.99,,,0.00,Acu-Link.com,2013-11-06 06:19:00,
2013-11-06 01:34:00,32.5,24.8,30.34,ENE,67,1.7,-999.0,73,-99.99,,,0.00,Acu-Link.com,2013-11-06 06:34:00,
2013-11-06 01:49:00,32.5,24.5,30.33,West,270,0.0,-999.0,72,-99.99,,,0.00,Acu-Link.com,2013-11-06 06:49:00,
2013-11-06 02:04:00,32.0,24.0,30.33,NW,315,2.2,-999.0,72,-99.99,,,0.00,Acu-Link.com,2013-11-06 07:04:00,
2013-11-06 02:19:00,31.1,23.8,30.35,North,0,0.0,-999.0,74,-99.99,,,0.00,Acu-Link.com,2013-11-06 07:19:00,
2013-11-06 02:34:00,30.6,23.6,30.35,NNE,22,0.0,-999.0,75,-99.99,,,0.00,Acu-Link.com,2013-11-06 07:34:00,
2013-11-06 02:50:00,30.7,23.7,30.33,ESE,112,2.7,-999.0,75,-99.99,,,0.00,Acu-Link.com,2013-11-06 07:50:00,
2013-11-06 03:06:00,31.6,24.3,30.33,ENE,67,1.7,-999.0,74,-99.99,,,0.00,Acu-Link.com,2013-11-06 08:06:00,
2013-11-06 03:21:00,31.3,24.0,30.33,North,0,2.2,-999.0,74,-99.99,,,0.00,Acu-Link.com,2013-11-06 08:21:00,
2013-11-06 03:36:00,30.9,23.6,30.33,East,90,3.7,-999.0,74,-99.99,,,0.00,Acu-Link.com,2013-11-06 08:36:00,
2013-11-06 03:51:00,31.3,24.0,30.32,NE,45,2.2,-999.0,74,-99.99,,,0.00,Acu-Link.com,2013-11-06 08:51:00,
2013-11-06 04:06:00,31.5,24.2,30.31,NNE,22,0.0,-999.0,74,-99.99,,,0.00,Acu-Link.com,2013-11-06 09:06:00,
2013-11-06 04:22:00,30.0,23.1,30.32,NW,315,1.7,-999.0,75,-99.99,,,0.00,Acu-Link.com,2013-11-06 09:22:00,
2013-11-06 04:37:00,29.5,22.9,30.32,North,0,1.7,-999.0,76,-99.99,,,0.00,Acu-Link.com,2013-11-06 09:37:00,
2013-11-06 04:52:00,28.8,22.5,30.31,North,0,0.0,-999.0,77,-99.99,,,0.00,Acu-Link.com,2013-11-06 09:52:00,
2013-11-06 05:07:00,28.6,22.6,30.32,NNW,337,0.0,-999.0,78,-99.99,,,0.00,Acu-Link.com,2013-11-06 10:07:00,
2013-11-06 05:22:00,29.1,23.1,30.31,North,0,0.0,-999.0,78,-99.99,,,0.00,Acu-Link.com,2013-11-06 10:22:00,
2013-11-06 05:38:00,29.1,23.1,30.31,East,90,0.0,-999.0,78,-99.99,,,0.00,Acu-Link.com,2013-11-06 10:38:00,
2013-11-06 05:53:00,28.8,23.1,30.30,North,0,0.0,-999.0,79,-99.99,,,0.00,Acu-Link.com,2013-11-06 10:53:00,
2013-11-06 06:08:00,28.6,22.9,30.28,North,0,1.7,-999.0,79,-99.99,,,0.00,Acu-Link.com,2013-11-06 11:08:00,
2013-11-06 06:23:00,28.2,22.8,30.28,NNW,337,0.0,-999.0,80,-99.99,,,0.00,Acu-Link.com,2013-11-06 11:23:00,
2013-11-06 06:38:00,28.6,23.5,30.28,ENE,67,0.0,-999.0,81,-99.99,,,0.00,Acu-Link.com,2013-11-06 11:38:00,
2013-11-06 06:54:00,29.1,24.0,30.28,SSW,202,0.0,-999.0,81,-99.99,,,0.00,Acu-Link.com,2013-11-06 11:54:00,
2013-11-06 07:09:00,29.3,24.2,30.28,NNE,22,0.0,-999.0,81,-99.99,,,0.00,Acu-Link.com,2013-11-06 12:09:00,
2013-11-06 07:24:00,29.5,24.4,30.28,WNW,292,0.0,-999.0,81,-99.99,,,0.00,Acu-Link.com,2013-11-06 12:24:00,
2013-11-06 07:39:00,29.7,24.6,30.27,ENE,67,0.0,-999.0,81,-99.99,,,0.00,Acu-Link.com,2013-11-06 12:39:00,
2013-11-06 07:55:00,30.4,25.3,30.27,WNW,292,2.2,-999.0,81,-99.99,,,0.00,Acu-Link.com,2013-11-06 12:55:00,
2013-11-06 08:10:00,32.7,26.6,30.26,East,90,0.0,-999.0,78,-99.99,,,0.00,Acu-Link.com,2013-11-06 13:10:00,
2013-11-06 08:25:00,34.2,27.8,30.26,West,270,0.0,-999.0,77,-99.99,,,0.00,Acu-Link.com,2013-11-06 13:25:00,
2013-11-06 08:41:00,35.4,28.6,30.25,WNW,292,0.0,-999.0,76,-99.99,,,0.00,Acu-Link.com,2013-11-06 13:41:00,
2013-11-06 08:56:00,37.4,29.9,30.23,WSW,247,0.0,-999.0,74,-99.99,,,0.00,Acu-Link.com,2013-11-06 13:56:00,
2013-11-06 09:11:00,38.8,30.6,30.22,WSW,247,2.7,-999.0,72,-99.99,,,0.00,Acu-Link.com,2013-11-06 14:11:00,
2013-11-06 09:26:00,40.8,31.4,30.20,SSE,157,3.2,-999.0,69,-99.99,,,0.00,Acu-Link.com,2013-11-06 14:26:00,
2013-11-06 09:41:00,42.1,32.3,30.19,WSW,247,0.0,-999.0,68,-99.99,,,0.00,Acu-Link.com,2013-11-06 14:41:00,
2013-11-06 09:56:00,44.2,32.4,30.18,SE,135,1.7,-999.0,63,-99.99,,,0.00,Acu-Link.com,2013-11-06 14:56:00,
2013-11-06 10:12:00,45.0,32.4,30.18,SW,225,0.0,-999.0,61,-99.99,,,0.00,Acu-Link.com,2013-11-06 15:12:00,
2013-11-06 10:27:00,46.0,32.5,30.16,South,180,3.7,-999.0,59,-99.99,,,0.00,Acu-Link.com,2013-11-06 15:27:00,
2013-11-06 10:42:00,46.6,32.6,30.16,SSE,157,2.7,-999.0,58,-99.99,,,0.00,Acu-Link.com,2013-11-06 15:42:00,
2013-11-06 10:57:00,47.1,33.9,30.15,East,90,0.0,-999.0,60,-99.99,,,0.00,Acu-Link.com,2013-11-06 15:57:00,
2013-11-06 11:12:00,46.6,32.2,30.14,ESE,112,2.7,-999.0,57,-99.99,,,0.00,Acu-Link.com,2013-11-06 16:12:00,
2013-11-06 11:27:00,49.3,33.4,30.11,SSW,202,4.7,-999.0,54,-99.99,,,0.00,Acu-Link.com,2013-11-06 16:27:00,
2013-11-06 11:43:00,50.4,33.9,30.12,ESE,112,2.2,-999.0,53,-99.99,,,0.00,Acu-Link.com,2013-11-06 16:43:00,
2013-11-06 11:58:00,50.9,34.9,30.11,SSW,202,4.7,-999.0,54,-99.99,,,0.00,Acu-Link.com,2013-11-06 16:58:00,
2013-11-06 12:13:00,50.9,35.8,30.09,East,90,3.2,-999.0,56,-99.99,,,0.00,Acu-Link.com,2013-11-06 17:13:00,
2013-11-06 12:28:00,52.7,34.1,30.08,West,270,9.4,-999.0,49,-99.99,,,0.00,Acu-Link.com,2013-11-06 17:28:00,
2013-11-06 12:44:00,53.1,32.3,30.07,SSE,157,2.7,-999.0,45,-99.99,,,0.00,Acu-Link.com,2013-11-06 17:44:00,
2013-11-06 12:59:00,53.4,31.5,30.07,SSE,157,6.3,-999.0,43,-99.99,,,0.00,Acu-Link.com,2013-11-06 17:59:00,
2013-11-06 13:14:00,54.0,32.0,30.07,SSW,202,1.7,-999.0,43,-99.99,,,0.00,Acu-Link.com,2013-11-06 18:14:00,
2013-11-06 13:29:00,53.6,31.7,30.06,WSW,247,9.4,-999.0,43,-99.99,,,0.00,Acu-Link.com,2013-11-06 18:29:00,
2013-11-06 13:44:00,54.3,32.3,30.04,SSW,202,4.7,-999.0,43,-99.99,,,0.00,Acu-Link.com,2013-11-06 18:44:00,
2013-11-06 14:00:00,54.3,32.3,30.03,SW,225,3.2,-999.0,43,-99.99,,,0.00,Acu-Link.com,2013-11-06 19:00:00,
2013-11-06 14:15:00,54.0,32.0,30.04,SSE,157,2.7,-999.0,43,-99.99,,,0.00,Acu-Link.com,2013-11-06 19:15:00,
2013-11-06 14:30:00,53.6,32.8,30.02,South,180,2.2,-999.0,45,-99.99,,,0.00,Acu-Link.com,2013-11-06 19:30:00,
2013-11-06 14:45:00,52.7,33.0,30.03,SW,225,1.1,-999.0,47,-99.99,,,0.00,Acu-Link.com,2013-11-06 19:45:00,
2013-11-06 15:00:00,51.8,32.7,30.02,SSW,202,3.2,-999.0,48,-99.99,,,0.00,Acu-Link.com,2013-11-06 20:00:00,
2013-11-06 15:16:00,51.3,32.8,30.02,ESE,112,0.0,-999.0,49,-99.99,,,0.00,Acu-Link.com,2013-11-06 20:16:00,
2013-11-06 15:31:00,49.8,33.8,30.01,SSW,202,1.7,-999.0,54,-99.99,,,0.00,Acu-Link.com,2013-11-06 20:31:00,
2013-11-06 15:46:00,48.4,33.4,30.00,SSE,157,4.2,-999.0,56,-99.99,,,0.00,Acu-Link.com,2013-11-06 20:46:00,
2013-11-06 16:01:00,47.7,33.2,30.00,SSE,157,4.2,-999.0,57,-99.99,,,0.00,Acu-Link.com,2013-11-06 21:01:00,
2013-11-06 16:16:00,46.9,33.8,30.01,SSE,157,4.2,-999.0,60,-99.99,,,0.00,Acu-Link.com,2013-11-06 21:16:00,
2013-11-06 16:34:00,46.4,32.4,29.99,NE,45,2.2,-999.0,58,-99.99,,,0.00,Acu-Link.com,2013-11-06 21:34:00,
2013-11-06 16:49:00,45.9,32.0,29.99,ESE,112,3.7,-999.0,58,-99.99,,,0.00,Acu-Link.com,2013-11-06 21:49:00,
2013-11-06 17:04:00,45.7,31.8,30.00,SE,135,5.3,-999.0,58,-99.99,,,0.00,Acu-Link.com,2013-11-06 22:04:00,
2013-11-06 17:19:00,45.7,32.6,29.99,ESE,112,2.2,-999.0,60,-99.99,,,0.00,Acu-Link.com,2013-11-06 22:19:00,
2013-11-06 17:34:00,45.1,32.5,29.99,ESE,112,2.2,-999.0,61,-99.99,,,0.00,Acu-Link.com,2013-11-06 22:34:00,
2013-11-06 17:50:00,44.8,32.6,29.98,NE,45,1.7,-999.0,62,-99.99,,,0.00,Acu-Link.com,2013-11-06 22:50:00,
2013-11-06 18:05:00,44.2,32.8,29.98,ENE,67,0.0,-999.0,64,-99.99,,,0.00,Acu-Link.com,2013-11-06 23:05:00,
2013-11-06 18:20:00,43.9,32.9,29.98,ENE,67,0.0,-999.0,65,-99.99,,,0.00,Acu-Link.com,2013-11-06 23:20:00,
2013-11-06 18:35:00,46.0,34.9,29.94,ESE,112,3.7,-999.0,65,-99.99,,,0.00,Acu-Link.com,2013-11-06 23:35:00,
2013-11-06 18:50:00,45.9,34.8,29.95,WNW,292,3.2,-999.0,65,-99.99,,,0.00,Acu-Link.com,2013-11-06 23:50:00,
2013-11-06 19:05:00,46.0,35.3,29.96,East,90,5.8,-999.0,66,-99.99,,,0.00,Acu-Link.com,2013-11-07 00:05:00,
2013-11-06 19:21:00,48.0,36.4,29.92,South,180,3.2,-999.0,64,-99.99,,,0.00,Acu-Link.com,2013-11-07 00:21:00,
2013-11-06 19:36:00,47.8,36.6,29.92,North,0,0.0,-999.0,65,-99.99,,,0.00,Acu-Link.com,2013-11-07 00:36:00,
2013-11-06 19:51:00,48.0,36.8,29.91,NW,315,2.2,-999.0,65,-99.99,,,0.00,Acu-Link.com,2013-11-07 00:51:00,
2013-11-06 20:06:00,48.4,37.2,29.90,SW,225,1.1,-999.0,65,-99.99,,,0.00,Acu-Link.com,2013-11-07 01:06:00,
2013-11-06 20:21:00,48.6,37.4,29.88,ESE,112,3.7,-999.0,65,-99.99,,,0.00,Acu-Link.com,2013-11-07 01:21:00,
2013-11-06 20:37:00,48.9,37.7,29.87,SE,135,2.7,-999.0,65,-99.99,,,0.00,Acu-Link.com,2013-11-07 01:37:00,
2013-11-06 20:52:00,49.1,37.8,29.85,South,180,4.7,-999.0,65,-99.99,,,0.00,Acu-Link.com,2013-11-07 01:52:00,
2013-11-06 21:07:00,49.3,38.0,29.86,SW,225,5.8,-999.0,65,-99.99,,,0.00,Acu-Link.com,2013-11-07 02:07:00,
2013-11-06 21:22:00,48.9,37.7,29.87,West,270,4.2,-999.0,65,-99.99,,,0.00,Acu-Link.com,2013-11-07 02:22:00,
2013-11-06 21:37:00,48.6,37.8,29.85,West,270,3.2,-999.0,66,-99.99,,,0.00,Acu-Link.com,2013-11-07 02:37:00,
2013-11-06 21:53:00,48.7,38.2,29.83,SE,135,2.2,-999.0,67,-99.99,,,0.00,Acu-Link.com,2013-11-07 02:53:00,
2013-11-06 22:08:00,48.6,38.1,29.82,ENE,67,3.7,-999.0,67,-99.99,,,0.00,Acu-Link.com,2013-11-07 03:08:00,
2013-11-06 22:23:00,48.7,38.2,29.83,WSW,247,4.7,-999.0,67,-99.99,,,0.00,Acu-Link.com,2013-11-07 03:23:00,
2013-11-06 22:38:00,48.7,38.2,29.82,West,270,4.2,-999.0,67,-99.99,,,0.00,Acu-Link.com,2013-11-07 03:38:00,
2013-11-06 22:53:00,48.9,38.4,29.81,South,180,3.2,-999.0,67,-99.99,,,0.00,Acu-Link.com,2013-11-07 03:53:00,
2013-11-06 23:09:00,48.9,38.4,29.79,NNE,22,2.2,-999.0,67,-99.99,,,0.00,Acu-Link.com,2013-11-07 04:09:00,
2013-11-06 23:24:00,49.3,39.2,29.79,SSW,202,1.7,-999.0,68,-99.99,,,0.00,Acu-Link.com,2013-11-07 04:24:00,
2013-11-06 23:39:00,49.3,39.2,29.79,SSE,157,1.7,-999.0,68,-99.99,,,0.00,Acu-Link.com,2013-11-07 04:39:00,
2013-11-06 23:54:00,49.5,39.0,29.78,WSW,247,7.8,-999.0,67,-99.99,,,0.00,Acu-Link.com,2013-11-07 04:54:00,